Latest Weather Observations for Kadina

IDS60801

Issued at 11:05 am CST Tuesday 2 September 2014 (issued every 30 minutes, with the page automatically refreshed every 10 minutes)

About weather observations | Map of weather stations | Latest weather observations for SA | Other Formats
Station Details ID: 022050 Name: KADINA AWS Lat: -33.97 Lon: 137.66 Height: 41.14 m
Data from the previous 72 hours. | See also: Recent months at Kadina
Date/Time
CST
Temp
°C
App
Temp
°C
Dew
Point
Rel
Hum
%
Delta-T
°C
Wind Press
QNH
hPa
Press
MSL
hPa
Rain
since 9 am
mm
Dir
 
Spd
km/h
Gust
km/h
Spd
kts
Gust
kts
02/11:00am 13.2 8.0 7.2 67 2.9 S 24 35 13 19 1026.4 - 0.0
02/10:30am 13.7 9.0 9.2 74 2.3 S 24 32 13 17 1026.4 - 0.0
02/10:00am 12.7 7.9 7.2 69 2.7 S 22 33 12 18 1026.4 - 0.0
02/09:30am 12.2 7.7 8.7 79 1.7 S 22 32 12 17 1026.3 - 0.0
02/09:00am 11.2 7.3 8.6 84 1.3 S 19 24 10 13 1026.2 1026.0 1.8
02/08:30am 9.7 6.4 8.0 89 0.8 S 15 20 8 11 1026.2 - 1.8
02/08:00am 8.1 4.9 6.9 92 0.6 S 13 15 7 8 1025.9 - 1.8
02/07:30am 5.8 1.8 4.9 94 0.4 S 15 17 8 9 1025.4 - 1.8
02/07:00am 4.3 -0.4 3.4 94 0.4 S 17 19 9 10 1025.1 - 1.8
02/06:30am 4.0 -0.3 3.1 94 0.4 S 15 17 8 9 1024.8 - 1.8
02/06:00am 4.0 0.0 3.0 93 0.4 S 13 13 7 7 1024.4 1024.2 1.8
02/05:30am 4.5 0.6 3.3 92 0.5 S 13 17 7 9 1024.1 - 1.8
02/05:00am 5.1 0.2 4.1 93 0.4 S 19 20 10 11 1023.4 - 1.8
02/04:30am 4.5 0.3 3.6 94 0.4 S 15 15 8 8 1023.1 - 1.8
02/04:00am 4.8 1.0 3.8 93 0.4 SSW 13 15 7 8 1022.8 - 1.8
02/03:30am 5.1 1.3 4.1 93 0.4 SSW 13 15 7 8 1022.5 - 1.8
02/03:00am 5.7 1.6 4.3 91 0.6 SSW 15 17 8 9 1022.4 1022.3 1.8
02/02:30am 6.1 2.9 4.9 92 0.5 SSW 11 13 6 7 1022.4 - 1.8
02/02:00am 5.9 2.6 4.7 92 0.5 S 11 13 6 7 1022.1 - 1.8
02/01:30am 6.3 3.1 4.9 91 0.6 S 11 15 6 8 1022.0 - 1.8
02/01:00am 7.5 3.3 5.8 89 0.8 SSW 17 20 9 11 1021.8 - 1.8
02/12:30am 6.6 3.4 5.1 90 0.7 S 11 13 6 7 1021.9 - 1.8
02/12:00am 7.3 3.4 5.4 88 0.8 S 15 24 8 13 1021.7 1021.6 1.8
 
Date/Time
CST
Temp
°C
App
Temp
°C
Dew
Point
Rel
Hum
%
Delta-T
°C
Wind Press
QNH
hPa
Press
MSL
hPa
Rain
since 9 am
mm
Dir
 
Spd
km/h
Gust
km/h
Spd
kts
Gust
kts
01/11:30pm 6.4 2.7 4.7 89 0.7 S 13 17 7 9 1021.6 - 1.8
01/11:00pm 6.9 3.3 5.1 88 0.8 SSW 13 20 7 11 1021.5 - 1.6
01/10:30pm 7.2 3.8 5.8 91 0.6 S 13 15 7 8 1021.5 - 1.6
01/10:00pm 6.7 3.5 5.3 91 0.6 SW 11 13 6 7 1021.1 - 1.6
01/09:30pm 6.8 4.1 5.6 92 0.5 SSW 9 11 5 6 1020.7 - 1.6
01/09:00pm 7.8 3.3 6.1 89 0.8 SSW 19 24 10 13 1020.5 1020.4 1.6
01/08:32pm 9.3 2.3 6.9 85 1.1 SSW 33 52 18 28 1020.2 - 1.6
01/08:30pm 9.5 2.1 6.9 84 1.2 SSW 35 52 19 28 1020.2 - 1.6
01/08:24pm 9.8 1.8 7.4 85 1.1 SW 39 52 21 28 1019.9 - 1.6
01/08:00pm 8.7 5.2 7.2 90 0.7 SSW 15 20 8 11 1019.8 - 1.6
01/07:30pm 9.0 4.6 7.3 89 0.8 SSW 20 35 11 19 1019.4 - 1.6
01/07:00pm 8.8 5.3 7.3 90 0.7 SSW 15 20 8 11 1018.6 - 1.6
01/06:30pm 9.9 7.5 8.5 91 0.7 WSW 11 13 6 7 1018.1 - 1.4
01/06:00pm 9.8 7.3 8.4 91 0.7 WSW 11 13 6 7 1017.9 1017.8 1.2
01/05:30pm 10.3 6.9 9.2 93 0.5 SSW 17 46 9 25 1017.6 - 1.2
01/05:19pm 10.9 5.3 8.7 86 1.1 WSW 28 50 15 27 1017.5 - 0.4
01/05:00pm 12.2 7.5 7.9 75 2.1 WSW 22 30 12 16 1017.1 - 0.2
01/04:30pm 12.7 8.8 8.6 76 2.0 WSW 19 24 10 13 1016.6 - 0.2
01/04:00pm 12.5 7.4 9.3 81 1.6 SW 26 39 14 21 1016.4 - 0.2
01/03:30pm 12.8 6.8 10.0 83 1.4 SW 32 43 17 23 1016.0 - 0.2
01/03:15pm 13.9 7.7 7.9 67 3.0 SW 30 54 16 29 1015.7 - 0.2
01/03:00pm 14.7 8.6 8.2 65 3.3 WSW 30 39 16 21 1015.5 1015.4 0.2
01/02:30pm 15.1 8.9 7.9 62 3.6 SW 30 39 16 21 1015.0 - 0.2
01/02:00pm 15.0 9.4 8.7 66 3.2 SW 28 35 15 19 1015.0 - 0.2
01/01:30pm 15.4 10.0 9.5 68 3.1 SW 28 35 15 19 1015.1 - 0.2
01/01:00pm 15.0 9.8 10.4 74 2.4 WSW 28 37 15 20 1015.3 - 0.2
01/12:30pm 14.2 8.9 9.8 75 2.3 WSW 28 39 15 21 1015.3 - 0.2
01/12:00pm 14.5 9.5 10.9 79 1.9 WSW 28 39 15 21 1015.4 1015.3 0.2
01/11:30am 14.6 9.6 11.0 79 1.9 WSW 28 39 15 21 1015.5 - 0.2
01/11:00am 13.9 10.3 11.8 87 1.1 WSW 22 28 12 15 1015.5 - 0.0
01/10:30am 13.0 11.0 11.6 91 0.7 W 13 17 7 9 1015.5 - 0.0
01/10:00am 11.9 11.0 11.3 96 0.3 SW 7 11 4 6 1015.6 - 0.0
01/09:30am 11.2 9.7 10.6 96 0.3 SSW 9 11 5 6 1015.5 - 0.0
01/09:00am 11.0 8.3 10.4 96 0.3 SSW 15 20 8 11 1015.3 1015.1 7.0
01/08:30am 11.0 7.9 10.4 96 0.3 SSW 17 20 9 11 1014.8 - 6.8
01/08:00am 11.2 7.2 10.6 96 0.3 SSW 22 33 12 18 1014.3 - 6.6
01/07:30am 11.7 7.8 10.9 95 0.4 SSW 22 28 12 15 1013.9 - 6.4
01/07:00am 11.9 9.8 11.3 96 0.3 WNW 13 17 7 9 1014.0 - 6.2
01/06:30am 11.7 10.4 11.1 96 0.3 WNW 9 13 5 7 1013.8 - 6.2
01/06:00am 11.6 10.6 11.0 96 0.3 NW 7 9 4 5 1012.9 1012.7 6.2
01/05:30am 11.9 10.6 11.3 96 0.3 W 9 11 5 6 1013.3 - 6.2
01/05:00am 12.0 12.4 11.4 96 0.3 CALM 0 0 0 0 1012.7 - 6.2
01/04:30am 12.0 11.1 11.4 96 0.3 WNW 7 9 4 5 1012.7 - 6.2
01/04:00am 11.7 10.9 11.1 96 0.3 NNW 6 9 3 5 1012.4 - 6.0
01/03:30am 12.0 11.2 11.2 95 0.4 WSW 6 9 3 5 1012.3 - 5.8
01/03:00am 11.9 10.6 11.1 95 0.4 WSW 9 13 5 7 1012.2 1012.0 5.6
01/02:30am 12.0 8.8 11.4 96 0.3 WSW 19 22 10 12 1012.6 - 5.2
01/02:00am 12.4 10.9 11.8 96 0.3 SSW 11 13 6 7 1012.3 - 4.6
01/01:30am 12.4 11.2 11.6 95 0.4 SW 9 11 5 6 1012.8 - 4.0
01/01:00am 12.3 10.7 11.5 95 0.4 SSW 11 13 6 7 1012.5 - 3.8
01/12:30am 12.7 10.8 11.8 94 0.5 WSW 13 19 7 10 1013.0 - 3.2
01/12:00am 12.9 11.5 12.1 95 0.4 WSW 11 35 6 19 1012.4 1012.2 2.4
 
Date/Time
CST
Temp
°C
App
Temp
°C
Dew
Point
Rel
Hum
%
Delta-T
°C
Wind Press
QNH
hPa
Press
MSL
hPa
Rain
since 9 am
mm
Dir
 
Spd
km/h
Gust
km/h
Spd
kts
Gust
kts
31/11:30pm 13.3 9.1 12.5 95 0.4 SSW 26 33 14 18 1012.0 - 1.0
31/11:00pm 13.5 10.1 12.6 94 0.5 SSW 22 30 12 16 1011.8 - 0.0
31/10:30pm 13.7 11.7 12.6 93 0.6 S 15 19 8 10 1012.1 - 0.0
31/10:00pm 14.1 11.7 12.5 90 0.9 SSW 17 24 9 13 1012.7 - 0.0
31/09:30pm 13.5 11.5 11.6 88 1.0 SSW 13 17 7 9 1012.2 - 0.0
31/09:00pm 13.8 12.0 9.5 75 2.2 SW 9 15 5 8 1012.3 1012.2 0.0
31/08:30pm 13.7 11.3 8.7 72 2.5 SSW 11 15 6 8 1011.3 - 0.0
31/08:00pm 13.6 10.6 7.8 68 2.9 SW 13 17 7 9 1011.5 - 0.0
31/07:30pm 13.7 12.2 9.0 73 2.4 S 7 9 4 5 1010.9 - 0.0
31/07:00pm 14.1 12.0 9.7 75 2.3 SSW 11 13 6 7 1011.1 - 0.0
31/06:30pm 14.3 12.6 9.7 74 2.4 SE 9 19 5 10 1010.2 - 0.0
31/06:00pm 16.2 15.0 9.4 64 3.5 W 6 7 3 4 1010.8 1010.7 0.0
31/05:30pm 17.8 15.0 8.4 54 4.8 WNW 13 22 7 12 1010.6 - 0.0
31/05:00pm 19.2 15.2 6.7 44 6.3 N 17 22 9 12 1010.0 - 0.0
31/04:30pm 19.4 15.1 6.8 44 6.3 N 19 22 10 12 1010.1 - 0.0
31/04:00pm 20.2 15.3 6.9 42 6.7 N 22 28 12 15 1010.1 - 0.0
31/03:30pm 21.7 16.4 5.2 34 8.2 N 22 32 12 17 1010.4 - 0.0
31/03:00pm 21.3 15.0 5.6 36 7.8 N 28 37 15 20 1010.2 1010.1 0.0
31/02:30pm 21.8 14.2 3.9 31 8.7 N 33 44 18 24 1010.3 - 0.0
31/02:00pm 21.4 14.6 4.9 34 8.1 N 30 43 16 23 1011.0 - 0.0
31/01:30pm 19.9 13.5 5.2 38 7.2 N 28 35 15 19 1011.9 - 0.0
31/01:00pm 22.3 15.4 4.4 31 8.8 N 30 43 16 23 1012.5 - 0.0
31/12:30pm 22.1 15.4 5.5 34 8.3 N 30 37 16 20 1013.1 - 0.0
31/12:00pm 19.6 13.5 4.9 38 7.1 N 26 35 14 19 1013.7 1013.6 0.0
31/11:30am 19.4 11.6 2.7 33 7.8 N 33 46 18 25 1014.2 - 0.0
31/11:00am 19.1 10.9 2.9 34 7.5 N 35 48 19 26 1014.9 - 0.0
31/10:30am 18.9 11.3 2.7 34 7.5 N 32 50 17 27 1015.0 - 0.0
31/10:29am 19.0 11.3 2.4 33 7.6 N 32 50 17 27 1014.9 - 0.0
31/10:00am 16.4 9.5 4.4 45 5.6 N 30 43 16 23 1015.4 - 0.0
31/09:30am 17.0 10.2 5.3 46 5.6 N 30 37 16 20 1015.6 - 0.0
31/09:00am 14.9 10.1 7.2 60 3.8 N 22 39 12 21 1015.9 1015.9 0.0
31/08:30am 12.5 8.1 7.4 71 2.5 N 20 26 11 14 1015.7 - 0.0
31/08:00am 9.5 5.4 6.2 80 1.5 NNE 17 20 9 11 1015.8 - 0.0
31/07:30am 9.3 5.2 6.0 80 1.5 NNE 17 20 9 11 1015.7 - 0.0
31/07:00am 6.6 2.3 3.2 79 1.4 NE 15 17 8 9 1015.9 - 0.0
31/06:30am 7.0 2.3 3.4 78 1.5 NNE 17 20 9 11 1015.6 - 0.0
31/06:00am 5.6 0.8 2.6 81 1.2 NE 17 17 9 9 1015.7 1015.7 0.0
31/05:30am 7.4 2.7 3.1 74 1.8 NNE 17 19 9 10 1015.3 - 0.0
31/05:00am 8.8 4.1 3.0 67 2.5 NNE 17 19 9 10 1015.1 - 0.0
31/04:30am 9.6 5.1 4.0 68 2.5 NNE 17 20 9 11 1014.9 - 0.0
31/04:00am 9.6 4.8 4.4 70 2.3 NNE 19 24 10 13 1014.9 - 0.0
31/03:30am 9.4 4.6 4.4 71 2.2 NNE 19 24 10 13 1014.9 - 0.0
31/03:00am 8.4 3.5 4.2 75 1.8 NNE 19 20 10 11 1015.4 1015.4 0.0
31/02:30am 9.2 4.4 4.4 72 2.1 NNE 19 24 10 13 1015.5 - 0.0
31/02:00am 7.7 2.9 4.5 80 1.4 NE 19 20 10 11 1016.0 - 0.0
31/01:30am 8.1 4.1 4.9 80 1.4 NNE 15 17 8 9 1016.3 - 0.0
31/01:00am 9.1 4.7 4.9 75 1.9 NNE 17 20 9 11 1016.5 - 0.0
31/12:30am 9.7 5.1 5.7 76 1.8 NNE 19 20 10 11 1016.6 - 0.0
31/12:00am 9.0 4.5 6.1 82 1.3 NE 19 20 10 11 1016.8 1016.8 0.0
 
Date/Time
CST
Temp
°C
App
Temp
°C
Dew
Point
Rel
Hum
%
Delta-T
°C
Wind Press
QNH
hPa
Press
MSL
hPa
Rain
since 9 am
mm
Dir
 
Spd
km/h
Gust
km/h
Spd
kts
Gust
kts
30/11:30pm 8.1 4.4 6.2 88 0.9 NE 15 17 8 9 1017.4 - 0.0
30/11:00pm 9.1 5.8 6.4 83 1.3 NNE 13 15 7 8 1017.7 - 0.0
30/10:30pm 10.5 6.9 6.6 77 1.8 NNE 15 17 8 9 1017.9 - 0.0
30/10:00pm 11.9 7.8 6.4 69 2.6 NNE 17 19 9 10 1018.1 - 0.0
30/09:30pm 12.4 7.8 5.8 64 3.1 NNE 19 20 10 11 1018.4 - 0.0
30/09:00pm 10.8 6.1 5.3 69 2.5 NNE 19 20 10 11 1018.4 1018.4 0.0
30/08:30pm 9.8 5.5 5.4 74 2.0 NNE 17 20 9 11 1018.4 - 0.0
30/08:00pm 10.3 6.9 6.1 75 2.0 NE 13 15 7 8 1018.4 - 0.0
30/07:30pm 11.5 7.4 6.4 71 2.4 NE 17 20 9 11 1018.3 - 0.0
30/07:00pm 12.1 8.6 7.0 71 2.5 NNE 15 17 8 9 1018.3 - 0.0
30/06:30pm 12.5 8.8 6.5 67 2.9 NNE 15 17 8 9 1018.3 - 0.0
30/06:00pm 14.3 10.7 6.6 60 3.7 NNE 15 17 8 9 1018.3 1018.3 0.0
30/05:30pm 17.2 13.1 6.4 49 5.3 NNE 17 20 9 11 1018.1 - 0.0
30/05:00pm 19.4 15.3 6.2 42 6.6 NNE 17 20 9 11 1018.0 - 0.0
30/04:30pm 21.0 16.0 4.6 34 8.0 NNE 20 26 11 14 1018.1 - 0.0
30/04:00pm 22.9 16.4 2.4 26 9.7 N 26 35 14 19 1018.3 - 0.0
30/03:30pm 23.2 16.8 3.2 27 9.7 N 26 35 14 19 1018.7 - 0.0
30/03:00pm 23.3 16.8 2.7 26 9.8 N 26 33 14 18 1019.1 1019.1 0.0
30/02:30pm 23.2 16.3 2.7 26 9.8 N 28 39 15 21 1019.3 - 0.0
30/02:00pm 23.2 16.5 1.5 24 10.1 N 26 37 14 20 1019.6 - 0.0
30/01:30pm 23.6 16.5 3.5 27 9.8 N 30 39 16 21 1019.9 - 0.0
30/01:00pm 22.9 16.3 1.8 25 9.9 N 26 37 14 20 1020.6 - 0.0
30/12:30pm 22.6 16.5 2.7 27 9.5 N 24 35 13 19 1021.2 - 0.0
30/12:00pm 21.9 15.6 3.6 30 8.8 N 26 33 14 18 1021.7 1021.7 0.0
30/11:30am 21.9 15.6 3.6 30 8.8 N 26 37 14 20 1022.2 - 0.0

Other Formats:

Comma delimited format used in spreadsheet applications
http://www.bom.gov.au/fwo/IDS60801/IDS60801.94685.axf

JavaScript Object Notation format (JSON) in row-major order
http://www.bom.gov.au/fwo/IDS60801/IDS60801.94685.json